createdAt,value
2019-02-24T00:01:09.795Z,9.00
2019-02-24T00:03:38.048Z,9.83
2019-02-24T00:06:06.419Z,8.90
2019-02-24T00:08:34.721Z,10.00
2019-02-24T00:11:02.971Z,9.23
2019-02-24T00:13:31.296Z,9.07
2019-02-24T00:15:59.564Z,8.80
2019-02-24T00:18:27.821Z,9.23
2019-02-24T00:20:56.091Z,9.13
2019-02-24T00:23:24.423Z,8.93
2019-02-24T00:25:52.690Z,9.77
2019-02-24T00:28:20.959Z,8.00
2019-02-24T00:30:49.282Z,9.13
2019-02-24T00:33:17.544Z,9.00
2019-02-24T00:35:45.902Z,8.07
2019-02-24T00:38:14.200Z,7.93
2019-02-24T00:40:42.487Z,8.50
2019-02-24T00:43:10.769Z,8.80
2019-02-24T00:45:39.037Z,8.43
2019-02-24T00:48:07.322Z,8.87
2019-02-24T00:50:35.597Z,9.43
2019-02-24T00:53:03.877Z,8.00
2019-02-24T00:55:32.189Z,8.50
2019-02-24T00:58:00.544Z,9.03
2019-02-24T01:00:28.837Z,9.70
2019-02-24T01:02:57.162Z,8.93
2019-02-24T01:05:25.464Z,8.87
2019-02-24T01:07:53.757Z,9.57
2019-02-24T01:10:22.036Z,9.70
2019-02-24T01:12:50.311Z,9.20
2019-02-24T01:15:18.592Z,9.87
2019-02-24T01:17:47.124Z,10.37
2019-02-24T01:20:15.418Z,9.70
2019-02-24T01:22:43.766Z,9.13
2019-02-24T01:25:12.066Z,10.37
2019-02-24T01:27:40.347Z,9.13
2019-02-24T01:30:10.447Z,8.77
2019-02-24T01:32:38.703Z,9.87
2019-02-24T01:35:10.956Z,9.73
2019-02-24T01:37:39.238Z,10.30
2019-02-24T01:40:08.729Z,9.53
2019-02-24T01:42:37.064Z,9.77
2019-02-24T01:45:07.033Z,9.10
2019-02-24T01:47:35.323Z,8.33
2019-02-24T01:50:04.061Z,9.97
2019-02-24T01:52:32.324Z,9.13
2019-02-24T01:55:00.678Z,9.47
2019-02-24T01:57:29.090Z,10.03
2019-02-24T01:59:57.442Z,9.13
2019-02-24T02:02:25.786Z,9.67
2019-02-24T02:04:54.129Z,8.10
2019-02-24T02:07:22.484Z,9.10
2019-02-24T02:09:50.770Z,8.73
2019-02-24T02:12:19.050Z,8.53
2019-02-24T02:14:47.341Z,9.10
2019-02-24T02:17:15.608Z,9.90
2019-02-24T02:19:43.958Z,8.07
2019-02-24T02:22:12.221Z,9.37
2019-02-24T02:24:40.509Z,8.43
2019-02-24T02:27:08.788Z,9.23
2019-02-24T02:29:37.064Z,9.07
2019-02-24T02:32:05.380Z,8.53
2019-02-24T02:34:33.710Z,8.50
2019-02-24T02:37:01.990Z,8.30
2019-02-24T02:39:30.269Z,8.03
2019-02-24T02:41:58.522Z,9.73
2019-02-24T02:44:26.800Z,7.60
2019-02-24T02:46:55.092Z,9.10
2019-02-24T02:49:23.368Z,8.30
2019-02-24T02:51:51.633Z,8.10
2019-02-24T02:54:19.965Z,8.90
2019-02-24T02:56:48.263Z,8.30
2019-02-24T02:59:16.516Z,9.13
2019-02-24T03:01:44.778Z,8.30
2019-02-24T03:04:13.080Z,8.67
2019-02-24T03:06:42.990Z,8.80
2019-02-24T03:09:11.655Z,8.77
2019-02-24T03:11:39.931Z,8.63
2019-02-24T03:14:08.221Z,8.90
2019-02-24T03:16:36.603Z,9.43
2019-02-24T03:19:04.864Z,8.73
2019-02-24T03:21:33.140Z,9.00
2019-02-24T03:24:01.452Z,9.93
2019-02-24T03:26:29.829Z,9.37
2019-02-24T03:29:04.019Z,8.27
2019-02-24T03:31:28.162Z,9.00
2019-02-24T03:33:56.399Z,8.97
2019-02-24T03:36:24.663Z,9.30
2019-02-24T03:38:52.939Z,10.23
2019-02-24T03:41:21.231Z,7.80
2019-02-24T03:43:49.491Z,9.20
2019-02-24T03:46:17.783Z,9.37
2019-02-24T03:48:46.062Z,10.07
2019-02-24T03:51:14.517Z,8.70
2019-02-24T03:53:42.772Z,9.60
2019-02-24T03:56:11.029Z,10.17
2019-02-24T03:58:40.953Z,9.97
2019-02-24T04:01:09.232Z,10.00
2019-02-24T04:03:37.584Z,9.70
2019-02-24T04:06:05.845Z,8.90
2019-02-24T04:08:34.123Z,10.17
2019-02-24T04:11:02.406Z,9.97
2019-02-24T04:13:30.702Z,9.60
2019-02-24T04:15:59.117Z,9.50
2019-02-24T04:18:27.414Z,9.53
2019-02-24T04:20:58.478Z,9.77
2019-02-24T04:23:26.799Z,10.00
2019-02-24T04:25:55.071Z,9.47
2019-02-24T04:28:23.403Z,9.30
2019-02-24T04:30:51.731Z,10.60
2019-02-24T04:33:19.980Z,10.83
2019-02-24T04:35:48.238Z,9.80
2019-02-24T04:38:16.527Z,11.33
2019-02-24T04:40:44.795Z,11.00
2019-02-24T04:43:13.144Z,9.37
2019-02-24T04:45:41.411Z,10.50
2019-02-24T04:48:09.712Z,10.83
2019-02-24T04:50:38.052Z,10.37
2019-02-24T04:53:06.343Z,10.60
2019-02-24T04:55:34.639Z,10.17
2019-02-24T04:58:02.984Z,9.63
2019-02-24T05:00:31.242Z,10.07
2019-02-24T05:02:59.629Z,10.33
2019-02-24T05:05:27.909Z,10.33
2019-02-24T05:07:56.179Z,10.50
2019-02-24T05:10:24.521Z,11.50
2019-02-24T05:12:52.815Z,9.73
2019-02-24T05:15:21.103Z,11.23
2019-02-24T05:17:49.419Z,10.07
2019-02-24T05:20:17.718Z,10.20
2019-02-24T05:22:46.027Z,10.17
2019-02-24T05:25:14.388Z,10.30
2019-02-24T05:27:42.654Z,9.33
2019-02-24T05:30:10.921Z,10.40
2019-02-24T05:32:39.187Z,10.07
2019-02-24T05:35:07.481Z,10.47
2019-02-24T05:37:35.781Z,9.80
2019-02-24T05:40:05.069Z,10.70
2019-02-24T05:42:33.348Z,9.33
2019-02-24T05:45:01.656Z,9.73
2019-02-24T05:47:29.934Z,10.17
2019-02-24T05:49:58.210Z,9.83
2019-02-24T05:52:26.553Z,10.20
2019-02-24T05:54:54.867Z,9.57
2019-02-24T05:57:23.148Z,10.33
2019-02-24T05:59:55.230Z,9.83
2019-02-24T06:02:21.474Z,10.57
2019-02-24T06:04:49.773Z,9.37
2019-02-24T06:07:18.092Z,9.53
2019-02-24T06:09:46.399Z,10.57
2019-02-24T06:12:14.672Z,9.80
2019-02-24T06:14:43.031Z,11.37
2019-02-24T06:17:11.294Z,10.37
2019-02-24T06:19:39.573Z,9.77
2019-02-24T06:22:07.863Z,9.93
2019-02-24T06:24:36.124Z,9.20
2019-02-24T06:27:04.411Z,9.87
2019-02-24T06:29:32.681Z,9.50
2019-02-24T06:32:00.933Z,9.23
2019-02-24T06:34:29.222Z,11.00
2019-02-24T06:36:57.477Z,9.00
2019-02-24T06:39:25.760Z,11.20
2019-02-24T06:41:54.016Z,10.10
2019-02-24T06:44:22.291Z,9.63
2019-02-24T06:46:50.593Z,9.57
2019-02-24T06:49:18.872Z,9.07
2019-02-24T06:51:47.158Z,9.50
2019-02-24T06:54:15.468Z,9.67
2019-02-24T06:56:43.813Z,9.77
2019-02-24T06:59:12.085Z,9.97
2019-02-24T07:01:40.344Z,9.40
2019-02-24T07:04:08.690Z,9.00
2019-02-24T07:06:36.972Z,9.77
2019-02-24T07:09:05.414Z,9.57
2019-02-24T07:11:33.745Z,9.63
2019-02-24T07:14:02.084Z,9.30
2019-02-24T07:16:30.351Z,9.83
2019-02-24T07:18:58.619Z,9.10
2019-02-24T07:21:26.901Z,9.07
2019-02-24T07:23:55.174Z,10.63
2019-02-24T07:26:23.440Z,10.77
2019-02-24T07:28:51.749Z,9.43
2019-02-24T07:31:20.017Z,9.87
2019-02-24T07:33:49.924Z,10.40
2019-02-24T07:36:18.281Z,10.23
2019-02-24T07:38:48.048Z,9.80
2019-02-24T07:41:16.453Z,10.30
2019-02-24T07:43:44.734Z,10.50
2019-02-24T07:46:13.049Z,9.13
2019-02-24T07:48:41.341Z,9.93
2019-02-24T07:51:09.590Z,10.37
2019-02-24T07:53:37.949Z,9.63
2019-02-24T07:56:06.209Z,9.10
2019-02-24T07:58:34.576Z,10.23
2019-02-24T08:01:02.894Z,10.17
2019-02-24T08:03:31.156Z,9.67
2019-02-24T08:05:59.635Z,10.33
2019-02-24T08:08:27.909Z,10.43
2019-02-24T08:10:56.230Z,10.13
2019-02-24T08:13:24.499Z,10.10
2019-02-24T08:15:52.766Z,10.93
2019-02-24T08:18:21.063Z,9.93
2019-02-24T08:20:49.397Z,10.33
2019-02-24T08:23:17.716Z,10.73
2019-02-24T08:25:46.050Z,10.70
2019-02-24T08:28:14.373Z,9.80
2019-02-24T08:30:42.739Z,10.17
2019-02-24T08:33:11.023Z,9.67
2019-02-24T08:35:39.316Z,10.47
2019-02-24T08:38:07.588Z,10.13
2019-02-24T08:40:35.906Z,10.43
2019-02-24T08:43:04.266Z,9.17
2019-02-24T08:45:32.532Z,9.00
2019-02-24T08:48:00.801Z,9.50
2019-02-24T08:50:29.052Z,10.00
2019-02-24T08:52:57.334Z,9.47
2019-02-24T08:55:25.593Z,8.50
2019-02-24T08:57:53.859Z,9.30
2019-02-24T09:00:22.119Z,9.10
2019-02-24T09:02:52.432Z,8.80
2019-02-24T09:05:20.398Z,7.90
2019-02-24T09:07:48.681Z,8.60
2019-02-24T09:10:16.977Z,9.13
2019-02-24T09:12:45.231Z,8.77
2019-02-24T09:15:14.618Z,8.20
2019-02-24T09:17:42.880Z,8.93
2019-02-24T09:20:12.318Z,9.00
2019-02-24T09:22:40.600Z,8.50
2019-02-24T09:25:08.965Z,8.03
2019-02-24T09:27:37.244Z,8.93
2019-02-24T09:30:10.857Z,7.37
2019-02-24T09:32:39.199Z,8.13
2019-02-24T09:35:08.513Z,7.70
2019-02-24T09:37:36.808Z,7.63
2019-02-24T09:40:10.367Z,7.37
2019-02-24T09:42:38.731Z,7.87
2019-02-24T09:45:09.573Z,7.90
2019-02-24T09:47:46.292Z,8.60
2019-02-24T09:50:09.650Z,8.03
2019-02-24T09:52:37.917Z,7.60
2019-02-24T09:55:08.067Z,7.90
2019-02-24T09:57:37.106Z,7.93
2019-02-24T10:00:11.596Z,7.23
2019-02-24T10:02:39.847Z,7.97
2019-02-24T10:05:08.128Z,7.60
2019-02-24T10:07:37.379Z,7.83
2019-02-24T10:10:09.000Z,7.23
2019-02-24T10:12:37.302Z,7.03
2019-02-24T10:15:11.263Z,7.57
2019-02-24T10:17:39.490Z,7.47
2019-02-24T10:20:09.883Z,6.83
2019-02-24T10:22:38.306Z,7.43
2019-02-24T10:25:10.214Z,7.80
2019-02-24T10:27:39.093Z,7.43
2019-02-24T10:30:14.766Z,7.50
2019-02-24T10:32:43.022Z,8.10
2019-02-24T10:35:11.411Z,7.10
2019-02-24T10:37:39.736Z,6.33
2019-02-24T10:40:13.773Z,7.93
2019-02-24T10:42:42.120Z,7.37
2019-02-24T10:45:13.683Z,7.37
2019-02-24T10:47:41.993Z,7.20
2019-02-24T10:50:13.446Z,6.73
2019-02-24T10:52:44.275Z,7.63
2019-02-24T10:55:12.611Z,6.90
2019-02-24T10:57:40.890Z,6.87
2019-02-24T11:00:14.516Z,7.23
2019-02-24T11:02:42.791Z,7.30
2019-02-24T11:05:11.176Z,6.87
2019-02-24T11:07:39.521Z,6.37
2019-02-24T11:10:10.680Z,7.13
2019-02-24T11:12:38.943Z,7.07
2019-02-24T11:15:09.224Z,7.90
2019-02-24T11:17:37.554Z,7.97
2019-02-24T11:20:14.262Z,8.27
2019-02-24T11:22:42.527Z,7.53
2019-02-24T11:25:11.428Z,8.27
2019-02-24T11:27:39.689Z,8.03
2019-02-24T11:30:10.302Z,8.53
2019-02-24T11:32:38.583Z,7.10
2019-02-24T11:35:10.131Z,7.80
2019-02-24T11:37:38.386Z,7.67
2019-02-24T11:40:09.768Z,6.80
2019-02-24T11:42:38.009Z,7.00
2019-02-24T11:45:07.910Z,8.00
2019-02-24T11:47:36.175Z,8.00
2019-02-24T11:50:08.640Z,7.40
2019-02-24T11:52:36.899Z,8.03
2019-02-24T11:55:06.083Z,8.10
2019-02-24T11:57:34.348Z,8.23
2019-02-24T12:00:02.763Z,7.20
2019-02-24T12:02:34.425Z,7.47
2019-02-24T12:05:00.996Z,8.27
2019-02-24T12:07:29.263Z,7.90
2019-02-24T12:09:57.518Z,7.83
2019-02-24T12:12:25.802Z,7.43
2019-02-24T12:14:54.050Z,7.90
2019-02-24T12:17:22.311Z,7.57
2019-02-24T12:19:50.583Z,7.20
2019-02-24T12:22:18.833Z,6.77
2019-02-24T12:24:47.094Z,7.37
2019-02-24T12:27:15.349Z,7.60
2019-02-24T12:29:43.613Z,7.77
2019-02-24T12:32:11.902Z,7.77
2019-02-24T12:34:40.165Z,7.27
2019-02-24T12:37:08.447Z,7.93
2019-02-24T12:39:36.699Z,8.43
2019-02-24T12:42:04.945Z,7.70
2019-02-24T12:44:33.201Z,7.73
2019-02-24T12:47:01.449Z,8.03
2019-02-24T12:49:29.714Z,7.30
2019-02-24T12:51:57.971Z,7.60
2019-02-24T12:54:26.222Z,7.50
2019-02-24T12:56:54.545Z,6.50
2019-02-24T12:59:22.945Z,7.17
2019-02-24T13:01:51.194Z,7.40
2019-02-24T13:04:19.492Z,7.20
2019-02-24T13:06:47.733Z,7.13
2019-02-24T13:09:16.135Z,7.20
2019-02-24T13:11:44.395Z,8.07
2019-02-24T13:14:12.639Z,7.00
2019-02-24T13:16:41.002Z,7.33
2019-02-24T13:19:16.448Z,7.33
2019-02-24T13:21:46.425Z,6.63
2019-02-24T13:24:14.736Z,7.67
2019-02-24T13:26:43.007Z,7.77
2019-02-24T13:29:11.294Z,7.37
2019-02-24T13:31:39.526Z,7.80
2019-02-24T13:34:07.778Z,7.40
2019-02-24T13:36:36.035Z,6.87
2019-02-24T13:39:04.874Z,7.87
2019-02-24T13:41:33.121Z,7.37
2019-02-24T13:44:01.371Z,7.33
2019-02-24T13:46:29.618Z,7.10
2019-02-24T13:48:57.873Z,6.80
2019-02-24T13:51:26.121Z,7.37
2019-02-24T13:53:54.396Z,6.73
2019-02-24T13:56:22.651Z,7.63
2019-02-24T13:58:50.893Z,7.37
2019-02-24T14:01:19.152Z,7.33
2019-02-24T14:03:47.399Z,7.50
2019-02-24T14:06:15.675Z,7.73
2019-02-24T14:08:43.932Z,6.93
2019-02-24T14:11:12.190Z,7.03
2019-02-24T14:13:40.445Z,7.53
2019-02-24T14:16:08.694Z,7.00
2019-02-24T14:18:36.972Z,7.23
2019-02-24T14:21:05.219Z,7.10
2019-02-24T14:23:33.477Z,7.77
2019-02-24T14:26:01.732Z,6.83
2019-02-24T14:28:29.976Z,7.30
2019-02-24T14:30:58.257Z,7.20
2019-02-24T14:33:26.532Z,6.90
2019-02-24T14:35:54.775Z,7.13
2019-02-24T14:38:23.053Z,6.93
2019-02-24T14:40:51.317Z,7.50
2019-02-24T14:43:19.563Z,7.10
2019-02-24T14:45:49.849Z,7.57
2019-02-24T14:48:17.782Z,7.13
2019-02-24T14:50:46.058Z,7.20
2019-02-24T14:53:14.376Z,7.70
2019-02-24T14:55:42.672Z,7.30
2019-02-24T14:58:10.918Z,7.87
2019-02-24T15:00:39.172Z,7.67
2019-02-24T15:03:07.451Z,7.07
2019-02-24T15:05:35.699Z,6.67
2019-02-24T15:08:03.960Z,7.17
2019-02-24T15:10:32.216Z,7.30
2019-02-24T15:13:00.536Z,8.00
2019-02-24T15:15:36.831Z,7.40
2019-02-24T15:18:05.088Z,7.53
2019-02-24T15:20:33.427Z,8.03
2019-02-24T15:23:01.746Z,7.50
2019-02-24T15:25:30.068Z,7.80
2019-02-24T15:27:58.390Z,6.60
2019-02-24T15:30:32.113Z,8.13
2019-02-24T15:33:00.444Z,7.73
2019-02-24T15:35:28.831Z,8.03
2019-02-24T15:37:57.197Z,8.00
2019-02-24T15:40:25.585Z,7.80
2019-02-24T15:42:53.881Z,7.90
2019-02-24T15:45:23.770Z,7.53
2019-02-24T15:47:52.028Z,7.23
2019-02-24T15:50:20.381Z,8.60
2019-02-24T15:52:48.874Z,7.93
2019-02-24T15:55:17.844Z,7.43
2019-02-24T15:57:46.124Z,7.50
2019-02-24T16:00:22.658Z,7.83
2019-02-24T16:02:51.009Z,7.67
2019-02-24T16:05:19.276Z,7.27
2019-02-24T16:07:47.638Z,7.50
2019-02-24T16:10:18.347Z,7.30
2019-02-24T16:12:46.704Z,7.70
2019-02-24T16:15:25.930Z,8.03
2019-02-24T16:17:54.191Z,8.00
2019-02-24T16:20:30.468Z,7.40
2019-02-24T16:22:58.730Z,8.13
2019-02-24T16:25:26.999Z,7.97
2019-02-24T16:27:56.471Z,8.53
2019-02-24T16:30:24.776Z,7.50
2019-02-24T16:32:53.207Z,7.83
2019-02-24T16:35:21.573Z,8.10
2019-02-24T16:37:49.877Z,8.10
2019-02-24T16:40:26.085Z,8.77
2019-02-24T16:42:54.520Z,8.23
2019-02-24T16:45:22.871Z,8.47
2019-02-24T16:47:51.141Z,8.97
2019-02-24T16:50:21.179Z,7.83
2019-02-24T16:52:49.467Z,7.43
2019-02-24T16:55:18.161Z,8.17
2019-02-24T16:57:46.573Z,8.63
2019-02-24T17:00:25.319Z,7.83
2019-02-24T17:02:53.629Z,7.97
2019-02-24T17:05:23.524Z,7.73
2019-02-24T17:07:51.763Z,7.53
2019-02-24T17:10:21.486Z,8.33
2019-02-24T17:12:49.736Z,9.03
2019-02-24T17:15:18.046Z,8.83
2019-02-24T17:17:46.322Z,8.17
2019-02-24T17:20:20.753Z,8.57
2019-02-24T17:22:49.022Z,8.07
2019-02-24T17:25:17.444Z,8.60
2019-02-24T17:27:45.783Z,8.57
2019-02-24T17:30:15.364Z,8.97
2019-02-24T17:32:43.673Z,8.17
2019-02-24T17:35:12.715Z,9.03
2019-02-24T17:37:41.046Z,8.90
2019-02-24T17:40:14.249Z,9.33
2019-02-24T17:42:42.542Z,8.87
2019-02-24T17:45:13.460Z,9.10
2019-02-24T17:47:41.720Z,9.60
2019-02-24T17:50:12.160Z,8.57
2019-02-24T17:52:40.407Z,8.87
2019-02-24T17:55:12.585Z,9.03
2019-02-24T17:57:40.880Z,9.77
2019-02-24T18:00:25.842Z,8.93
2019-02-24T18:02:54.108Z,8.57
2019-02-24T18:05:22.378Z,9.87
2019-02-24T18:07:50.658Z,10.33
2019-02-24T18:10:18.917Z,9.57
2019-02-24T18:12:47.185Z,9.57
2019-02-24T18:15:15.766Z,9.17
2019-02-24T18:17:44.028Z,9.80
2019-02-24T18:20:16.276Z,10.27
2019-02-24T18:22:44.572Z,10.20
2019-02-24T18:25:13.130Z,9.40
2019-02-24T18:27:41.402Z,10.83
2019-02-24T18:30:18.695Z,12.33
2019-02-24T18:32:46.958Z,12.37
2019-02-24T18:35:15.272Z,13.53
2019-02-24T18:37:43.516Z,12.27
2019-02-24T18:40:13.827Z,13.03
2019-02-24T18:42:42.095Z,12.33
2019-02-24T18:45:11.912Z,12.40
2019-02-24T18:47:40.300Z,12.20
2019-02-24T18:50:11.193Z,11.77
2019-02-24T18:52:39.932Z,12.53
2019-02-24T18:55:09.987Z,12.60
2019-02-24T18:57:38.268Z,14.47
2019-02-24T19:00:09.853Z,13.70
2019-02-24T19:02:38.131Z,15.70
2019-02-24T19:05:07.960Z,13.50
2019-02-24T19:07:36.215Z,12.37
2019-02-24T19:10:07.845Z,13.90
2019-02-24T19:12:36.098Z,12.30
2019-02-24T19:15:04.860Z,13.23
2019-02-24T19:17:33.118Z,11.90
2019-02-24T19:20:01.404Z,12.80
2019-02-24T19:22:29.747Z,12.80
2019-02-24T19:24:58.006Z,13.30
2019-02-24T19:27:26.302Z,11.80
2019-02-24T19:29:54.571Z,11.73
2019-02-24T19:32:22.826Z,11.73
2019-02-24T19:34:51.094Z,13.57
2019-02-24T19:37:19.350Z,12.67
2019-02-24T19:39:47.633Z,13.33
2019-02-24T19:42:15.902Z,13.00
2019-02-24T19:44:44.166Z,13.73
2019-02-24T19:47:12.502Z,15.10
2019-02-24T19:49:40.795Z,16.77
2019-02-24T19:52:09.051Z,17.23
2019-02-24T19:54:37.318Z,17.10
2019-02-24T19:57:05.575Z,16.53
2019-02-24T19:59:33.836Z,15.73
2019-02-24T20:02:02.101Z,13.63
2019-02-24T20:04:30.453Z,14.93
2019-02-24T20:06:58.708Z,16.37
2019-02-24T20:09:26.978Z,17.67
2019-02-24T20:11:55.233Z,17.60
2019-02-24T20:14:23.494Z,18.07
2019-02-24T20:16:51.755Z,16.63
2019-02-24T20:19:20.014Z,17.97
2019-02-24T20:21:48.278Z,17.13
2019-02-24T20:24:16.563Z,18.03
2019-02-24T20:26:44.823Z,17.73
2019-02-24T20:29:13.090Z,16.50
2019-02-24T20:31:41.347Z,16.63
2019-02-24T20:34:09.697Z,16.37
2019-02-24T20:36:37.968Z,15.80
2019-02-24T20:39:06.700Z,14.77
2019-02-24T20:41:34.953Z,14.47
2019-02-24T20:44:03.217Z,15.83
2019-02-24T20:46:31.469Z,15.37
2019-02-24T20:48:59.715Z,15.17
2019-02-24T20:51:28.005Z,15.60
2019-02-24T20:53:56.269Z,13.97
2019-02-24T20:56:25.378Z,15.20
2019-02-24T20:58:53.666Z,13.73
2019-02-24T21:01:21.927Z,13.90
2019-02-24T21:03:50.190Z,14.10
2019-02-24T21:06:18.448Z,14.97
2019-02-24T21:08:46.760Z,15.00
2019-02-24T21:11:15.027Z,15.60
2019-02-24T21:13:43.292Z,15.83
2019-02-24T21:16:11.548Z,14.57
2019-02-24T21:18:39.817Z,14.37
2019-02-24T21:21:08.105Z,15.40
2019-02-24T21:23:36.374Z,16.23
2019-02-24T21:26:04.631Z,15.47
2019-02-24T21:28:32.937Z,14.90
2019-02-24T21:31:01.190Z,17.17
2019-02-24T21:33:29.453Z,14.73
2019-02-24T21:35:57.810Z,17.00
2019-02-24T21:38:26.101Z,15.33
2019-02-24T21:40:54.361Z,16.53
2019-02-24T21:43:22.655Z,15.67
2019-02-24T21:45:50.917Z,15.77
2019-02-24T21:48:19.175Z,16.47
2019-02-24T21:50:47.451Z,17.17
2019-02-24T21:53:15.715Z,16.60
2019-02-24T21:55:43.996Z,15.60
2019-02-24T21:58:12.321Z,16.20
2019-02-24T22:00:40.852Z,16.33
2019-02-24T22:03:09.121Z,16.53
2019-02-24T22:05:37.417Z,16.77
2019-02-24T22:08:05.677Z,17.17
2019-02-24T22:10:33.944Z,16.47
2019-02-24T22:13:02.219Z,17.13
2019-02-24T22:15:30.477Z,17.77
2019-02-24T22:17:58.743Z,16.57
2019-02-24T22:20:27.001Z,17.47
2019-02-24T22:22:55.291Z,16.93
2019-02-24T22:25:23.558Z,16.73
2019-02-24T22:27:51.808Z,17.40
2019-02-24T22:30:22.310Z,17.80
2019-02-24T22:32:50.569Z,18.73
2019-02-24T22:35:18.830Z,18.00
2019-02-24T22:37:47.104Z,18.37
2019-02-24T22:40:16.960Z,19.20
2019-02-24T22:42:45.804Z,20.13
2019-02-24T22:45:18.344Z,20.53
2019-02-24T22:47:46.639Z,20.23
2019-02-24T22:50:15.344Z,20.20
2019-02-24T22:52:43.886Z,20.33
2019-02-24T22:55:13.899Z,20.50
2019-02-24T22:57:42.173Z,20.30
2019-02-24T23:00:52.528Z,19.87
2019-02-24T23:03:21.904Z,20.53
2019-02-24T23:05:50.197Z,21.93
2019-02-24T23:08:18.463Z,25.10
2019-02-24T23:10:46.738Z,28.93
2019-02-24T23:13:14.998Z,25.50
2019-02-24T23:15:43.282Z,21.23
2019-02-24T23:18:11.557Z,20.13
2019-02-24T23:20:39.830Z,20.73
2019-02-24T23:23:08.139Z,21.13
2019-02-24T23:25:36.457Z,21.20
2019-02-24T23:28:04.709Z,19.23
2019-02-24T23:30:32.985Z,19.00
2019-02-24T23:33:01.245Z,19.03
2019-02-24T23:35:29.646Z,20.70
2019-02-24T23:37:57.928Z,19.90
2019-02-24T23:40:26.218Z,20.67
2019-02-24T23:42:54.572Z,20.40
2019-02-24T23:45:22.828Z,22.53
2019-02-24T23:47:51.107Z,20.30
2019-02-24T23:50:19.378Z,22.13
2019-02-24T23:52:47.729Z,19.70
2019-02-24T23:55:16.084Z,20.37
2019-02-24T23:57:44.461Z,20.20
